createdAt,value
2023-01-08T00:02:10.765Z,5.73
2023-01-08T00:04:39.264Z,5.65
2023-01-08T00:09:52.284Z,5.58
2023-01-08T00:12:21.337Z,5.56
2023-01-08T00:14:48.610Z,5.64
2023-01-08T00:17:16.995Z,5.59
2023-01-08T00:19:47.726Z,5.63
2023-01-08T00:22:15.424Z,5.68
2023-01-08T00:24:46.983Z,5.58
2023-01-08T00:27:14.302Z,5.58
2023-01-08T00:29:48.572Z,5.55
2023-01-08T00:32:17.885Z,5.62
2023-01-08T00:34:47.740Z,5.58
2023-01-08T00:37:19.016Z,5.56
2023-01-08T00:39:55.706Z,5.61
2023-01-08T00:42:25.759Z,5.60
2023-01-08T00:44:57.318Z,5.60
2023-01-08T00:47:26.577Z,5.56
2023-01-08T00:52:38.231Z,5.61
2023-01-08T00:55:09.391Z,5.61
2023-01-08T00:57:39.151Z,5.55
2023-01-08T01:00:15.344Z,5.63
2023-01-08T01:02:45.899Z,5.55
2023-01-08T01:05:17.556Z,5.51
2023-01-08T01:07:47.302Z,5.56
2023-01-08T01:10:20.224Z,5.62
2023-01-08T01:12:51.655Z,5.58
2023-01-08T01:15:22.923Z,5.62
2023-01-08T01:17:50.812Z,5.53
2023-01-08T01:20:18.575Z,5.46
2023-01-08T01:22:50.238Z,5.46
2023-01-08T01:25:17.930Z,5.48
2023-01-08T01:27:47.448Z,5.45
2023-01-08T01:30:16.343Z,5.51
2023-01-08T01:32:44.288Z,5.53
2023-01-08T01:35:15.222Z,5.57
2023-01-08T01:37:42.802Z,5.55
2023-01-08T01:40:13.050Z,5.58
2023-01-08T01:42:43.168Z,5.53
2023-01-08T01:45:24.687Z,5.53
2023-01-08T01:48:04.861Z,5.60
2023-01-08T01:50:52.310Z,5.49
2023-01-08T01:53:21.465Z,5.44
2023-01-08T01:55:49.682Z,5.44
2023-01-08T01:58:27.674Z,5.41
2023-01-08T02:01:01.806Z,5.45
2023-01-08T02:03:33.377Z,5.39
2023-01-08T02:06:41.173Z,5.39
2023-01-08T02:09:37.916Z,5.47
2023-01-08T02:12:26.093Z,5.44
2023-01-08T02:15:18.566Z,5.38
2023-01-08T02:18:34.175Z,5.37
2023-01-08T02:21:14.096Z,5.37
2023-01-08T02:24:10.034Z,5.42
2023-01-08T02:26:40.455Z,5.46
2023-01-08T02:29:23.689Z,5.46
2023-01-08T02:31:52.321Z,5.44
2023-01-08T02:34:20.702Z,5.41
2023-01-08T02:36:56.984Z,5.41
2023-01-08T02:39:49.691Z,5.37
2023-01-08T02:42:33.462Z,5.34
2023-01-08T02:45:30.684Z,5.39
2023-01-08T02:48:13.358Z,5.37
2023-01-08T02:51:06.448Z,5.35
2023-01-08T02:53:42.575Z,5.39
2023-01-08T02:56:18.270Z,5.30
2023-01-08T02:58:48.070Z,5.29
2023-01-08T03:01:20.441Z,5.39
2023-01-08T03:04:04.186Z,5.26
2023-01-08T03:06:34.193Z,5.23
2023-01-08T03:09:03.008Z,5.29
2023-01-08T03:11:38.306Z,5.23
2023-01-08T03:14:20.963Z,5.29
2023-01-08T03:17:22.336Z,5.28
2023-01-08T03:20:24.126Z,5.27
2023-01-08T03:22:56.665Z,5.35
2023-01-08T03:25:28.095Z,5.34
2023-01-08T03:28:03.423Z,5.31
2023-01-08T03:30:32.257Z,5.30
2023-01-08T03:33:03.202Z,5.35
2023-01-08T03:35:34.276Z,5.33
2023-01-08T03:38:18.093Z,5.33
2023-01-08T03:40:59.605Z,5.37
2023-01-08T03:43:29.250Z,5.35
2023-01-08T03:46:01.564Z,5.33
2023-01-08T03:48:31.498Z,5.27
2023-01-08T03:51:02.631Z,5.25
2023-01-08T03:53:31.215Z,5.27
2023-01-08T03:56:00.036Z,5.28
2023-01-08T03:58:33.334Z,5.33
2023-01-08T04:01:09.737Z,5.33
2023-01-08T04:03:42.064Z,5.28
2023-01-08T04:06:09.480Z,5.23
2023-01-08T04:08:37.363Z,5.27
2023-01-08T04:11:04.825Z,5.20
2023-01-08T04:13:35.452Z,5.27
2023-01-08T04:16:06.724Z,5.33
2023-01-08T04:18:35.124Z,5.23
2023-01-08T04:21:08.707Z,5.20
2023-01-08T04:23:38.564Z,5.28
2023-01-08T04:26:09.683Z,5.23
2023-01-08T04:28:40.181Z,5.28
2023-01-08T04:31:10.774Z,5.24
2023-01-08T04:33:42.387Z,5.21
2023-01-08T04:36:13.751Z,5.20
2023-01-08T04:38:42.728Z,5.22
2023-01-08T04:41:13.818Z,5.18
2023-01-08T04:43:44.242Z,5.28
2023-01-08T04:46:15.500Z,5.38
2023-01-08T04:48:44.550Z,5.24
2023-01-08T04:51:13.676Z,5.22
2023-01-08T04:53:45.940Z,5.30
2023-01-08T04:56:14.277Z,5.24
2023-01-08T04:58:42.760Z,5.14
2023-01-08T05:01:19.464Z,5.20
2023-01-08T05:03:52.759Z,5.27
2023-01-08T05:06:23.335Z,5.38
2023-01-08T05:08:51.897Z,5.35
2023-01-08T05:11:23.892Z,5.38
2023-01-08T05:13:55.609Z,5.36
2023-01-08T05:16:26.138Z,5.27
2023-01-08T05:18:55.977Z,5.30
2023-01-08T05:21:25.255Z,5.29
2023-01-08T05:23:56.806Z,5.23
2023-01-08T05:26:27.349Z,5.14
2023-01-08T05:28:55.389Z,5.19
2023-01-08T05:31:23.762Z,5.25
2023-01-08T05:34:03.228Z,5.21
2023-01-08T05:36:31.167Z,5.14
2023-01-08T05:39:02.656Z,5.11
2023-01-08T05:41:32.062Z,5.18
2023-01-08T05:44:02.074Z,5.14
2023-01-08T05:46:33.390Z,5.08
2023-01-08T05:49:02.635Z,5.27
2023-01-08T05:51:30.803Z,5.24
2023-01-08T05:53:58.121Z,5.26
2023-01-08T05:56:28.120Z,5.23
2023-01-08T05:58:56.178Z,5.33
2023-01-08T06:01:23.472Z,5.18
2023-01-08T06:03:56.313Z,5.17
2023-01-08T06:06:23.899Z,5.14
2023-01-08T06:08:58.907Z,5.14
2023-01-08T06:11:30.053Z,5.14
2023-01-08T06:13:59.051Z,5.09
2023-01-08T06:16:28.030Z,5.17
2023-01-08T06:18:56.602Z,5.09
2023-01-08T06:21:26.352Z,5.05
2023-01-08T06:23:55.850Z,5.10
2023-01-08T06:26:23.824Z,5.09
2023-01-08T06:28:52.633Z,5.10
2023-01-08T06:31:21.057Z,5.09
2023-01-08T06:33:50.462Z,5.08
2023-01-08T06:36:21.992Z,5.16
2023-01-08T06:38:50.444Z,5.12
2023-01-08T06:41:20.383Z,5.11
2023-01-08T06:43:47.849Z,5.09
2023-01-08T06:46:15.861Z,5.07
2023-01-08T06:48:48.497Z,5.09
2023-01-08T06:51:18.192Z,5.07
2023-01-08T06:53:51.965Z,5.19
2023-01-08T06:56:23.268Z,5.15
2023-01-08T06:58:55.458Z,5.16
2023-01-08T07:01:26.925Z,5.22
2023-01-08T07:03:56.041Z,5.15
2023-01-08T07:06:25.332Z,5.15
2023-01-08T07:08:52.782Z,5.11
2023-01-08T07:11:20.359Z,5.11
2023-01-08T07:13:50.788Z,5.12
2023-01-08T07:16:25.236Z,5.10
2023-01-08T07:18:53.083Z,5.08
2023-01-08T07:21:26.173Z,5.08
2023-01-08T07:23:56.077Z,5.15
2023-01-08T07:26:24.941Z,5.18
2023-01-08T07:28:56.360Z,5.14
2023-01-08T07:31:25.329Z,5.22
2023-01-08T07:33:56.503Z,5.15
2023-01-08T07:36:25.110Z,5.19
2023-01-08T07:38:56.295Z,5.21
2023-01-08T07:41:25.190Z,5.12
2023-01-08T07:43:55.507Z,5.13
2023-01-08T07:46:23.428Z,5.16
2023-01-08T07:48:55.786Z,5.28
2023-01-08T07:51:23.880Z,5.27
2023-01-08T07:53:53.422Z,5.12
2023-01-08T07:56:26.717Z,5.11
2023-01-08T07:58:54.911Z,5.17
2023-01-08T08:01:27.028Z,5.30
2023-01-08T08:03:58.516Z,5.30
2023-01-08T08:06:28.926Z,5.25
2023-01-08T08:09:02.414Z,5.28
2023-01-08T08:11:33.133Z,5.14
2023-01-08T08:14:10.220Z,5.15
2023-01-08T08:16:40.947Z,5.12
2023-01-08T08:19:12.855Z,5.25
2023-01-08T08:21:43.399Z,5.32
2023-01-08T08:24:12.308Z,5.28
2023-01-08T08:26:45.101Z,5.34
2023-01-08T08:29:18.366Z,5.37
2023-01-08T08:31:47.881Z,5.44
2023-01-08T08:34:20.504Z,5.52
2023-01-08T08:36:57.160Z,5.51
2023-01-08T08:39:27.000Z,5.62
2023-01-08T08:41:55.627Z,5.71
2023-01-08T08:44:27.485Z,5.70
2023-01-08T08:46:57.788Z,5.85
2023-01-08T08:49:26.249Z,5.79
2023-01-08T08:51:56.895Z,5.71
2023-01-08T08:54:28.627Z,5.77
2023-01-08T08:56:57.270Z,5.75
2023-01-08T08:59:25.710Z,5.83
2023-01-08T09:01:55.952Z,5.88
2023-01-08T09:04:27.828Z,5.94
2023-01-08T09:06:56.630Z,5.99
2023-01-08T09:09:29.929Z,6.04
2023-01-08T09:11:58.148Z,6.16
2023-01-08T09:14:27.340Z,6.29
2023-01-08T09:16:56.789Z,6.38
2023-01-08T09:19:27.117Z,6.48
2023-01-08T09:21:55.970Z,6.42
2023-01-08T09:24:24.855Z,6.49
2023-01-08T09:26:57.728Z,6.57
2023-01-08T09:29:27.153Z,6.72
2023-01-08T09:31:55.720Z,6.80
2023-01-08T09:34:29.023Z,6.88
2023-01-08T09:37:01.458Z,7.00
2023-01-08T09:39:33.143Z,7.08
2023-01-08T09:42:09.742Z,7.14
2023-01-08T09:44:41.578Z,7.17
2023-01-08T09:47:39.767Z,7.18
2023-01-08T09:50:16.524Z,7.26
2023-01-08T09:52:49.956Z,7.41
2023-01-08T09:55:18.917Z,7.52
2023-01-08T09:57:47.719Z,7.57
2023-01-08T10:00:27.667Z,7.48
2023-01-08T10:02:59.808Z,7.46
2023-01-08T10:05:33.189Z,7.53
2023-01-08T10:08:04.936Z,7.46
2023-01-08T10:10:38.955Z,7.41
2023-01-08T10:13:08.782Z,7.63
2023-01-08T10:15:37.829Z,7.90
2023-01-08T10:18:14.441Z,8.01
2023-01-08T10:20:44.157Z,8.17
2023-01-08T10:23:15.572Z,8.33
2023-01-08T10:26:03.625Z,8.38
2023-01-08T10:28:40.001Z,8.39
2023-01-08T10:31:17.533Z,8.35
2023-01-08T10:33:52.717Z,8.44
2023-01-08T10:36:28.701Z,8.33
2023-01-08T10:39:02.282Z,8.26
2023-01-08T10:41:37.116Z,8.23
2023-01-08T10:44:17.221Z,8.19
2023-01-08T10:46:51.731Z,8.22
2023-01-08T10:49:37.084Z,8.27
2023-01-08T10:52:23.438Z,8.27
2023-01-08T10:54:52.758Z,8.08
2023-01-08T10:57:32.348Z,7.94
2023-01-08T11:00:02.269Z,7.92
2023-01-08T11:02:39.697Z,7.95
2023-01-08T11:05:11.417Z,8.13
2023-01-08T11:07:40.967Z,8.37
2023-01-08T11:10:30.482Z,8.50
2023-01-08T11:13:02.208Z,8.63
2023-01-08T11:15:42.275Z,8.72
2023-01-08T11:18:20.921Z,8.78
2023-01-08T11:20:49.754Z,8.89
2023-01-08T11:23:27.687Z,8.92
2023-01-08T11:26:32.607Z,9.03
2023-01-08T11:29:14.826Z,9.12
2023-01-08T11:31:56.032Z,9.19
2023-01-08T11:35:03.484Z,9.29
2023-01-08T11:37:36.287Z,9.48
2023-01-08T11:40:19.625Z,9.55
2023-01-08T11:43:25.369Z,9.55
2023-01-08T11:46:23.789Z,9.54
2023-01-08T11:49:25.422Z,9.58
2023-01-08T11:52:24.606Z,9.61
2023-01-08T11:55:23.217Z,9.61
2023-01-08T11:58:11.648Z,9.59
2023-01-08T12:01:04.830Z,9.68
2023-01-08T12:03:53.311Z,9.78
2023-01-08T12:06:53.438Z,9.92
2023-01-08T12:09:40.485Z,9.86
2023-01-08T12:12:28.502Z,9.89
2023-01-08T12:15:29.622Z,9.90
2023-01-08T12:18:41.133Z,9.91
2023-01-08T12:21:26.753Z,9.83
2023-01-08T12:24:22.098Z,9.74
2023-01-08T12:27:10.089Z,9.75
2023-01-08T12:30:02.050Z,9.78
2023-01-08T12:32:55.962Z,9.78
2023-01-08T12:35:40.082Z,9.71
2023-01-08T12:38:34.338Z,9.70
2023-01-08T12:41:25.825Z,9.51
2023-01-08T12:44:12.396Z,9.53
2023-01-08T12:46:45.101Z,9.46
2023-01-08T12:49:25.607Z,9.39
2023-01-08T12:52:12.183Z,9.42
2023-01-08T12:55:47.129Z,9.40
2023-01-08T12:58:43.805Z,9.43
2023-01-08T13:01:44.962Z,9.32
2023-01-08T13:04:15.267Z,9.35
2023-01-08T13:07:05.294Z,9.30
2023-01-08T13:09:34.807Z,9.29
2023-01-08T13:12:03.279Z,9.25
2023-01-08T13:15:03.513Z,9.27
2023-01-08T13:17:39.233Z,9.31
2023-01-08T13:20:09.005Z,9.28
2023-01-08T13:22:41.581Z,9.36
2023-01-08T13:25:27.059Z,9.38
2023-01-08T13:27:57.338Z,9.39
2023-01-08T13:30:43.548Z,9.39
2023-01-08T13:33:39.974Z,9.48
2023-01-08T13:36:25.765Z,9.38
2023-01-08T13:39:06.400Z,9.40
2023-01-08T13:41:55.233Z,9.37
2023-01-08T13:44:29.967Z,9.39
2023-01-08T13:47:04.963Z,9.49
2023-01-08T13:50:06.311Z,9.48
2023-01-08T13:52:43.562Z,9.49
2023-01-08T13:55:24.430Z,9.49
2023-01-08T13:58:02.954Z,9.35
2023-01-08T14:00:48.134Z,9.38
2023-01-08T14:03:35.606Z,9.32
2023-01-08T14:06:30.553Z,9.34
2023-01-08T14:09:05.512Z,9.39
2023-01-08T14:11:47.892Z,9.33
2023-01-08T14:14:24.014Z,9.35
2023-01-08T14:16:59.763Z,9.28
2023-01-08T14:19:31.461Z,9.30
2023-01-08T14:22:04.355Z,9.30
2023-01-08T14:24:37.293Z,9.32
2023-01-08T14:27:05.540Z,9.32
2023-01-08T14:29:39.356Z,9.29
2023-01-08T14:32:16.587Z,9.31
2023-01-08T14:34:48.828Z,9.43
2023-01-08T14:37:19.411Z,9.39
2023-01-08T14:39:55.113Z,9.35
2023-01-08T14:42:44.464Z,9.36
2023-01-08T14:45:28.960Z,9.34
2023-01-08T14:48:01.936Z,9.27
2023-01-08T14:50:42.341Z,9.29
2023-01-08T14:53:26.317Z,9.26
2023-01-08T14:55:57.526Z,9.24
2023-01-08T14:58:30.816Z,9.25
2023-01-08T15:01:20.526Z,9.24
2023-01-08T15:03:52.805Z,9.24
2023-01-08T15:06:28.791Z,9.22
2023-01-08T15:09:00.480Z,9.27
2023-01-08T15:11:35.327Z,9.25
2023-01-08T15:14:15.135Z,9.24
2023-01-08T15:16:43.600Z,9.26
2023-01-08T15:19:30.792Z,9.24
2023-01-08T15:22:02.405Z,9.22
2023-01-08T15:24:41.672Z,9.30
2023-01-08T15:27:19.714Z,9.30
2023-01-08T15:29:53.144Z,9.29
2023-01-08T15:32:29.342Z,9.31
2023-01-08T15:35:01.564Z,9.30
2023-01-08T15:37:31.520Z,9.28
2023-01-08T15:40:00.796Z,9.27
2023-01-08T15:42:52.347Z,9.23
2023-01-08T15:45:29.532Z,9.20
2023-01-08T15:48:01.608Z,9.12
2023-01-08T15:50:40.899Z,9.14
2023-01-08T15:53:36.023Z,9.15
2023-01-08T15:56:08.832Z,9.20
2023-01-08T15:58:45.514Z,9.25
2023-01-08T16:01:14.340Z,9.24
2023-01-08T16:03:44.877Z,9.32
2023-01-08T16:06:13.728Z,9.27
2023-01-08T16:08:46.185Z,9.24
2023-01-08T16:11:16.806Z,9.19
2023-01-08T16:13:46.490Z,9.19
2023-01-08T16:16:17.148Z,9.14
2023-01-08T16:18:47.858Z,9.18
2023-01-08T16:21:15.448Z,9.22
2023-01-08T16:23:42.662Z,9.22
2023-01-08T16:26:17.726Z,9.24
2023-01-08T16:28:45.315Z,9.22
2023-01-08T16:31:13.062Z,9.28
2023-01-08T16:33:43.972Z,9.26
2023-01-08T16:36:16.659Z,9.22
2023-01-08T16:38:49.616Z,9.22
2023-01-08T16:41:20.313Z,9.27
2023-01-08T16:43:49.179Z,9.31
2023-01-08T16:46:19.470Z,9.31
2023-01-08T16:48:51.430Z,9.38
2023-01-08T16:51:22.570Z,9.42
2023-01-08T16:53:56.432Z,9.36
2023-01-08T16:56:27.825Z,9.36
2023-01-08T16:58:59.075Z,9.39
2023-01-08T17:01:28.347Z,9.50
2023-01-08T17:04:00.409Z,9.44
2023-01-08T17:06:30.931Z,9.40
2023-01-08T17:09:01.975Z,9.44
2023-01-08T17:11:33.983Z,9.40
2023-01-08T17:14:06.610Z,9.38
2023-01-08T17:16:35.837Z,9.38
2023-01-08T17:19:04.719Z,9.32
2023-01-08T17:21:34.132Z,9.29
2023-01-08T17:24:02.937Z,9.29
2023-01-08T17:26:31.987Z,9.37
2023-01-08T17:29:04.216Z,9.31
2023-01-08T17:31:40.525Z,9.31
2023-01-08T17:34:17.437Z,9.24
2023-01-08T17:36:46.398Z,9.29
2023-01-08T17:39:18.602Z,9.25
2023-01-08T17:42:10.327Z,9.38
2023-01-08T17:44:38.736Z,9.30
2023-01-08T17:47:09.093Z,9.39
2023-01-08T17:49:37.041Z,9.36
2023-01-08T17:52:10.620Z,9.37
2023-01-08T17:54:39.288Z,9.44
2023-01-08T17:57:09.052Z,9.47
2023-01-08T17:59:37.528Z,9.52
2023-01-08T18:02:16.287Z,9.53
2023-01-08T18:04:46.067Z,9.58
2023-01-08T18:07:15.657Z,9.63
2023-01-08T18:09:47.513Z,9.66
2023-01-08T18:12:16.763Z,9.68
2023-01-08T18:14:50.024Z,9.66
2023-01-08T18:17:20.546Z,9.67
2023-01-08T18:19:48.778Z,9.67
2023-01-08T18:22:17.209Z,9.77
2023-01-08T18:24:47.597Z,9.77
2023-01-08T18:27:15.906Z,9.69
2023-01-08T18:29:46.584Z,9.68
2023-01-08T18:32:20.030Z,9.65
2023-01-08T18:34:49.174Z,9.66
2023-01-08T18:37:23.347Z,9.55
2023-01-08T18:39:52.963Z,9.53
2023-01-08T18:42:28.132Z,9.63
2023-01-08T18:44:58.609Z,9.68
2023-01-08T18:47:28.983Z,9.60
2023-01-08T18:50:03.096Z,9.59
2023-01-08T18:52:32.097Z,9.61
2023-01-08T18:54:59.619Z,9.56
2023-01-08T18:57:30.140Z,9.58
2023-01-08T18:59:58.679Z,9.65
2023-01-08T19:02:29.069Z,9.55
2023-01-08T19:04:56.973Z,9.51
2023-01-08T19:07:27.538Z,9.58
2023-01-08T19:10:00.390Z,9.54
2023-01-08T19:12:31.988Z,9.60
2023-01-08T19:14:59.786Z,9.50
2023-01-08T19:17:30.985Z,9.53
2023-01-08T19:20:03.145Z,9.54
2023-01-08T19:22:32.640Z,9.47
2023-01-08T19:25:00.295Z,9.34
2023-01-08T19:27:29.713Z,9.30
2023-01-08T19:29:57.075Z,9.25
2023-01-08T19:32:26.619Z,9.30
2023-01-08T19:34:54.081Z,9.32
2023-01-08T19:37:21.841Z,9.27
2023-01-08T19:39:50.693Z,9.14
2023-01-08T19:42:37.409Z,9.19
2023-01-08T19:45:05.679Z,9.21
2023-01-08T19:47:33.428Z,9.27
2023-01-08T19:50:02.566Z,9.23
2023-01-08T19:52:33.651Z,9.19
2023-01-08T19:55:02.589Z,9.09
2023-01-08T19:57:33.376Z,9.03
2023-01-08T20:00:00.542Z,9.10
2023-01-08T20:02:29.062Z,9.07
2023-01-08T20:04:56.871Z,9.14
2023-01-08T20:07:27.254Z,9.20
2023-01-08T20:09:55.466Z,9.10
2023-01-08T20:12:25.907Z,9.08
2023-01-08T20:14:54.859Z,9.06
2023-01-08T20:17:26.563Z,9.08
2023-01-08T20:20:03.891Z,9.11
2023-01-08T20:22:33.411Z,9.10
2023-01-08T20:25:01.272Z,9.04
2023-01-08T20:27:29.675Z,9.04
2023-01-08T20:30:05.074Z,9.00
2023-01-08T20:32:34.496Z,8.91
2023-01-08T20:35:11.450Z,8.88
2023-01-08T20:37:38.657Z,8.81
2023-01-08T20:40:14.359Z,8.73
2023-01-08T20:42:48.323Z,8.65
2023-01-08T20:45:18.005Z,8.55
2023-01-08T20:47:45.401Z,8.51
2023-01-08T20:50:19.933Z,8.42
2023-01-08T20:52:52.412Z,8.26
2023-01-08T20:55:25.333Z,8.21
2023-01-08T20:57:53.944Z,8.20
2023-01-08T21:00:27.262Z,8.05
2023-01-08T21:03:01.218Z,7.95
2023-01-08T21:05:30.265Z,7.91
2023-01-08T21:08:00.330Z,7.84
2023-01-08T21:10:28.168Z,7.79
2023-01-08T21:12:58.097Z,7.78
2023-01-08T21:15:28.586Z,7.74
2023-01-08T21:18:01.776Z,7.61
2023-01-08T21:20:29.903Z,7.56
2023-01-08T21:23:01.264Z,7.51
2023-01-08T21:25:35.013Z,7.42
2023-01-08T21:28:05.226Z,7.42
2023-01-08T21:30:33.994Z,7.54
2023-01-08T21:33:03.479Z,7.56
2023-01-08T21:35:34.458Z,7.58
2023-01-08T21:38:03.843Z,7.62
2023-01-08T21:40:34.362Z,7.60
2023-01-08T21:43:21.234Z,7.49
2023-01-08T21:46:05.466Z,7.39
2023-01-08T21:48:39.360Z,7.42
2023-01-08T21:51:31.660Z,7.36
2023-01-08T21:54:07.846Z,7.33
2023-01-08T21:56:41.216Z,7.25
2023-01-08T21:59:11.356Z,7.16
2023-01-08T22:01:42.017Z,7.07
2023-01-08T22:04:17.425Z,7.02
2023-01-08T22:06:47.729Z,7.00
2023-01-08T22:09:16.517Z,6.96
2023-01-08T22:11:45.248Z,6.88
2023-01-08T22:14:17.199Z,6.89
2023-01-08T22:16:48.624Z,6.81
2023-01-08T22:19:23.079Z,6.74
2023-01-08T22:21:53.818Z,6.71
2023-01-08T22:24:22.784Z,6.66
2023-01-08T22:26:52.451Z,6.63
2023-01-08T22:29:21.733Z,6.55
2023-01-08T22:31:54.667Z,6.50
2023-01-08T22:34:25.887Z,6.46
2023-01-08T22:36:56.464Z,6.39
2023-01-08T22:39:36.686Z,6.41
2023-01-08T22:42:05.753Z,6.34
2023-01-08T22:44:37.751Z,6.34
2023-01-08T22:47:09.396Z,6.30
2023-01-08T22:49:39.690Z,6.27
2023-01-08T22:52:15.497Z,6.23
2023-01-08T22:54:48.590Z,6.28
2023-01-08T22:57:25.048Z,6.24
2023-01-08T22:59:53.960Z,6.20
2023-01-08T23:02:28.533Z,6.18
2023-01-08T23:04:57.093Z,6.15
2023-01-08T23:07:29.473Z,6.24
2023-01-08T23:10:00.360Z,6.25
2023-01-08T23:12:27.567Z,6.33
2023-01-08T23:14:57.849Z,6.29
2023-01-08T23:17:27.276Z,6.26
2023-01-08T23:19:54.795Z,6.24
2023-01-08T23:22:23.414Z,6.25
2023-01-08T23:24:57.059Z,6.27
2023-01-08T23:27:26.975Z,6.24
2023-01-08T23:29:56.773Z,6.27
2023-01-08T23:32:34.900Z,6.24
2023-01-08T23:35:07.411Z,6.21
2023-01-08T23:37:36.312Z,6.10
2023-01-08T23:40:07.016Z,6.01
2023-01-08T23:42:34.819Z,5.95
2023-01-08T23:45:01.965Z,6.00
2023-01-08T23:47:30.640Z,6.06
2023-01-08T23:50:02.196Z,6.14
2023-01-08T23:52:33.194Z,6.12
2023-01-08T23:55:01.148Z,6.08
2023-01-08T23:57:30.265Z,6.13
